createdAt,value
2023-12-20T00:01:36.073Z,6.39
2023-12-20T00:06:35.925Z,6.33
2023-12-20T00:11:35.943Z,6.28
2023-12-20T00:16:35.910Z,6.23
2023-12-20T00:21:36.068Z,6.19
2023-12-20T00:26:36.030Z,6.14
2023-12-20T00:31:36.062Z,6.11
2023-12-20T00:36:35.949Z,6.05
2023-12-20T00:41:36.094Z,6.01
2023-12-20T00:46:35.987Z,5.98
2023-12-20T00:51:36.815Z,7.68
2023-12-20T00:56:36.239Z,8.79
2023-12-20T01:01:36.277Z,9.58
2023-12-20T01:06:36.215Z,10.29
2023-12-20T01:11:36.019Z,9.26
2023-12-20T01:16:36.048Z,8.23
2023-12-20T01:21:36.133Z,7.62
2023-12-20T01:26:36.200Z,7.32
2023-12-20T01:31:36.439Z,7.15
2023-12-20T01:36:36.046Z,7.00
2023-12-20T01:41:36.242Z,6.87
2023-12-20T01:46:36.332Z,6.80
2023-12-20T01:51:36.184Z,6.70
2023-12-20T01:56:36.152Z,6.64
2023-12-20T02:01:36.124Z,6.58
2023-12-20T02:06:36.134Z,6.54
2023-12-20T02:11:36.265Z,6.47
2023-12-20T02:16:36.122Z,6.42
2023-12-20T02:21:36.073Z,6.37
2023-12-20T02:26:36.487Z,6.32
2023-12-20T02:31:36.301Z,6.27
2023-12-20T02:36:36.096Z,6.22
2023-12-20T02:41:36.336Z,6.17
2023-12-20T02:46:36.221Z,6.14
2023-12-20T02:51:36.419Z,6.11
2023-12-20T02:56:36.169Z,6.07
2023-12-20T03:01:36.233Z,6.03
2023-12-20T03:06:36.171Z,5.99
2023-12-20T03:11:36.582Z,7.67
2023-12-20T03:16:38.568Z,8.83
2023-12-20T03:21:36.266Z,9.59
2023-12-20T03:26:36.234Z,10.12
2023-12-20T03:31:36.245Z,9.23
2023-12-20T03:36:36.223Z,8.29
2023-12-20T03:41:36.620Z,7.72
2023-12-20T03:46:36.364Z,7.39
2023-12-20T03:51:36.249Z,7.20
2023-12-20T03:56:36.184Z,7.04
2023-12-20T04:01:36.282Z,6.94
2023-12-20T04:06:36.572Z,6.86
2023-12-20T04:11:36.293Z,6.78
2023-12-20T04:16:36.273Z,6.69
2023-12-20T04:21:36.239Z,6.64
2023-12-20T04:26:36.406Z,6.58
2023-12-20T04:31:36.378Z,6.52
2023-12-20T04:36:36.633Z,6.47
2023-12-20T04:41:36.345Z,6.42
2023-12-20T04:46:36.573Z,6.37
2023-12-20T04:51:36.382Z,6.31
2023-12-20T04:56:36.453Z,6.27
2023-12-20T05:01:36.475Z,6.22
2023-12-20T05:06:36.504Z,6.16
2023-12-20T05:11:36.542Z,6.12
2023-12-20T05:16:36.560Z,6.07
2023-12-20T05:21:36.526Z,6.04
2023-12-20T05:26:36.501Z,6.00
2023-12-20T05:31:36.908Z,5.95
2023-12-20T05:36:36.476Z,7.58
2023-12-20T05:41:36.477Z,8.78
2023-12-20T05:46:36.530Z,9.51
2023-12-20T05:51:36.364Z,10.05
2023-12-20T05:56:36.359Z,9.18
2023-12-20T06:01:36.498Z,8.22
2023-12-20T06:06:36.371Z,7.61
2023-12-20T06:11:36.382Z,7.32
2023-12-20T06:16:36.404Z,7.14
2023-12-20T06:21:36.373Z,6.99
2023-12-20T06:26:36.522Z,6.87
2023-12-20T06:31:36.649Z,6.82
2023-12-20T06:36:36.680Z,6.73
2023-12-20T06:41:36.414Z,6.68
2023-12-20T06:46:36.572Z,6.59
2023-12-20T06:51:36.453Z,6.54
2023-12-20T06:56:36.436Z,6.49
2023-12-20T07:01:36.481Z,6.44
2023-12-20T07:06:36.608Z,6.40
2023-12-20T07:11:36.474Z,6.35
2023-12-20T07:16:36.505Z,6.31
2023-12-20T07:21:36.535Z,6.27
2023-12-20T07:26:36.892Z,6.22
2023-12-20T07:31:36.572Z,6.21
2023-12-20T07:36:36.610Z,6.16
2023-12-20T07:41:36.527Z,6.13
2023-12-20T07:46:36.552Z,6.11
2023-12-20T07:51:36.636Z,6.09
2023-12-20T07:56:36.666Z,6.05
2023-12-20T08:01:36.636Z,6.03
2023-12-20T08:06:36.795Z,6.00
2023-12-20T08:11:36.828Z,5.98
2023-12-20T08:16:36.569Z,7.52
2023-12-20T08:21:38.142Z,8.84
2023-12-20T08:26:36.992Z,9.65
2023-12-20T08:31:36.792Z,10.07
2023-12-20T08:36:36.876Z,9.23
2023-12-20T08:41:36.600Z,8.27
2023-12-20T08:46:36.717Z,7.81
2023-12-20T08:51:36.680Z,7.52
2023-12-20T08:56:36.898Z,7.36
2023-12-20T09:01:36.694Z,7.22
2023-12-20T09:06:36.897Z,7.11
2023-12-20T09:11:36.727Z,7.09
2023-12-20T09:16:37.509Z,7.04
2023-12-20T09:21:37.008Z,7.00
2023-12-20T09:26:36.926Z,6.96
2023-12-20T09:31:36.911Z,6.92
2023-12-20T09:36:37.150Z,6.90
2023-12-20T09:41:36.886Z,6.87
2023-12-20T09:46:36.874Z,6.85
2023-12-20T09:51:36.761Z,6.83
2023-12-20T09:56:36.928Z,6.82
2023-12-20T10:01:36.845Z,6.79
2023-12-20T10:06:37.090Z,6.78
2023-12-20T10:11:36.919Z,6.78
2023-12-20T10:16:36.965Z,6.78
2023-12-20T10:21:36.841Z,6.78
2023-12-20T10:26:37.323Z,6.78
2023-12-20T10:31:36.822Z,6.78
2023-12-20T10:36:36.775Z,6.78
2023-12-20T10:41:36.701Z,6.79
2023-12-20T10:46:36.979Z,6.79
2023-12-20T10:51:36.824Z,6.79
2023-12-20T10:56:37.408Z,6.79
2023-12-20T11:01:36.883Z,6.80
2023-12-20T11:06:36.866Z,6.81
2023-12-20T11:11:36.992Z,6.81
2023-12-20T11:16:41.348Z,6.81
2023-12-20T11:21:36.880Z,6.83
2023-12-20T11:26:36.927Z,6.82
2023-12-20T11:31:37.009Z,6.83
2023-12-20T11:36:37.426Z,6.84
2023-12-20T11:41:36.951Z,6.84
2023-12-20T11:46:37.199Z,6.86
2023-12-20T11:51:36.888Z,6.86
2023-12-20T11:56:36.972Z,6.87
2023-12-20T12:01:37.050Z,6.88
2023-12-20T12:06:36.985Z,6.90
2023-12-20T12:11:37.247Z,6.91
2023-12-20T12:16:37.357Z,6.91
2023-12-20T12:21:37.136Z,6.93
2023-12-20T12:26:37.243Z,6.95
2023-12-20T12:36:37.285Z,6.96
2023-12-20T12:41:37.039Z,6.98
2023-12-20T12:46:37.215Z,6.99
2023-12-20T12:51:37.032Z,7.00
2023-12-20T12:56:36.995Z,7.00
2023-12-20T13:01:37.152Z,7.02
2023-12-20T13:06:37.157Z,7.03
2023-12-20T13:11:37.218Z,7.04
2023-12-20T13:16:37.282Z,7.04
2023-12-20T13:21:37.088Z,7.05
2023-12-20T13:26:37.231Z,7.07
2023-12-20T13:31:37.182Z,7.09
2023-12-20T13:36:37.482Z,7.11
2023-12-20T13:41:37.071Z,7.12
2023-12-20T13:46:37.043Z,7.13
2023-12-20T13:51:37.259Z,7.13
2023-12-20T13:56:40.724Z,7.14
2023-12-20T14:01:37.245Z,7.15
2023-12-20T14:06:37.159Z,7.16
2023-12-20T14:11:37.135Z,7.16
2023-12-20T14:16:37.265Z,7.17
2023-12-20T14:21:37.153Z,7.17
2023-12-20T14:26:37.749Z,7.18
2023-12-20T14:31:37.283Z,7.19
2023-12-20T14:36:37.207Z,7.19
2023-12-20T14:41:37.158Z,7.19
2023-12-20T14:46:38.857Z,7.20
2023-12-20T14:51:37.751Z,7.19
2023-12-20T14:56:37.353Z,7.20
2023-12-20T15:01:37.329Z,7.20
2023-12-20T15:06:37.398Z,7.20
2023-12-20T15:11:37.326Z,7.20
2023-12-20T15:16:37.544Z,7.19
2023-12-20T15:21:37.089Z,7.18
2023-12-20T15:26:37.244Z,7.18
2023-12-20T15:31:37.214Z,7.19
2023-12-20T15:36:37.660Z,7.18
2023-12-20T15:41:37.480Z,7.17
2023-12-20T15:46:37.351Z,7.16
2023-12-20T15:51:37.325Z,7.16
2023-12-20T15:56:37.128Z,7.14
2023-12-20T16:01:37.298Z,7.13
2023-12-20T16:06:37.227Z,7.12
2023-12-20T16:11:37.371Z,7.11
2023-12-20T16:16:37.379Z,7.10
2023-12-20T16:21:37.237Z,7.09
2023-12-20T16:26:37.343Z,7.07
2023-12-20T16:31:37.373Z,7.05
2023-12-20T16:36:37.480Z,7.03
2023-12-20T16:41:37.455Z,7.01
2023-12-20T16:46:37.726Z,6.99
2023-12-20T16:51:37.324Z,6.98
2023-12-20T16:56:37.367Z,6.97
2023-12-20T17:01:37.435Z,6.94
2023-12-20T17:06:37.604Z,6.93
2023-12-20T17:11:37.397Z,6.91
2023-12-20T17:16:37.442Z,6.89
2023-12-20T17:21:37.363Z,6.88
2023-12-20T17:26:37.360Z,6.86
2023-12-20T17:31:37.377Z,6.84
2023-12-20T17:36:37.644Z,6.83
2023-12-20T17:41:37.378Z,6.81
2023-12-20T17:46:37.492Z,6.80
2023-12-20T17:51:37.371Z,6.78
2023-12-20T17:56:37.468Z,6.77
2023-12-20T18:01:37.473Z,6.76
2023-12-20T18:06:37.442Z,6.74
2023-12-20T18:11:37.973Z,6.73
2023-12-20T18:16:37.792Z,6.69
2023-12-20T18:21:37.522Z,6.68
2023-12-20T18:26:37.559Z,6.68
2023-12-20T18:31:37.485Z,6.66
2023-12-20T18:36:37.481Z,6.62
2023-12-20T18:41:37.445Z,6.61
2023-12-20T18:46:37.655Z,6.58
2023-12-20T18:51:37.611Z,6.56
2023-12-20T18:56:37.770Z,6.53
2023-12-20T19:01:37.488Z,6.50
2023-12-20T19:06:37.682Z,6.49
2023-12-20T19:11:38.214Z,6.46
2023-12-20T19:16:37.615Z,6.44
2023-12-20T19:21:37.692Z,6.41
2023-12-20T19:26:37.768Z,6.38
2023-12-20T19:31:37.446Z,6.34
2023-12-20T19:36:37.532Z,6.31
2023-12-20T19:41:37.492Z,6.30
2023-12-20T19:46:37.925Z,6.27
2023-12-20T19:51:37.487Z,6.26
2023-12-20T19:56:37.511Z,6.23
2023-12-20T20:01:37.686Z,6.22
2023-12-20T20:06:37.639Z,6.21
2023-12-20T20:11:37.500Z,6.17
2023-12-20T20:16:37.478Z,6.16
2023-12-20T20:21:37.496Z,6.15
2023-12-20T20:26:37.471Z,6.14
2023-12-20T20:31:37.731Z,6.12
2023-12-20T20:36:38.076Z,6.12
2023-12-20T20:41:37.510Z,6.08
2023-12-20T20:46:37.658Z,6.08
2023-12-20T20:51:37.492Z,6.06
2023-12-20T20:56:37.807Z,6.05
2023-12-20T21:01:37.963Z,6.05
2023-12-20T21:06:38.045Z,6.04
2023-12-20T21:11:37.898Z,6.03
2023-12-20T21:16:38.092Z,6.02
2023-12-20T21:21:37.615Z,6.00
2023-12-20T21:26:38.120Z,6.01
2023-12-20T21:31:37.703Z,5.97
2023-12-20T21:36:37.852Z,7.49
2023-12-20T21:41:37.614Z,8.83
2023-12-20T21:46:37.730Z,9.59
2023-12-20T21:51:37.776Z,10.28
2023-12-20T21:56:37.876Z,9.28
2023-12-20T22:01:37.740Z,8.41
2023-12-20T22:06:37.764Z,7.93
2023-12-20T22:11:37.885Z,7.63
2023-12-20T22:16:37.887Z,7.42
2023-12-20T22:21:37.946Z,7.26
2023-12-20T22:26:38.292Z,7.16
2023-12-20T22:31:37.786Z,7.09
2023-12-20T22:36:37.663Z,7.02
2023-12-20T22:41:37.777Z,6.97
2023-12-20T22:46:37.665Z,6.90
2023-12-20T22:51:37.720Z,6.83
2023-12-20T22:56:37.707Z,6.82
2023-12-20T23:01:37.896Z,6.77
2023-12-20T23:06:38.042Z,6.72
2023-12-20T23:11:37.890Z,6.70
2023-12-20T23:16:37.927Z,6.66
2023-12-20T23:21:37.979Z,6.62
2023-12-20T23:26:38.023Z,6.58
2023-12-20T23:31:37.915Z,6.55
2023-12-20T23:36:37.798Z,6.51
2023-12-20T23:41:37.989Z,6.47
2023-12-20T23:46:37.963Z,6.44
2023-12-20T23:51:38.047Z,6.41
2023-12-20T23:56:38.727Z,6.40
